Time;durP1;ratioP1;P1;durP2;ratioP2;P2;SDS_P1;SDS_P2;PMS_P1;PMS_P2;Temp;Humidity;BMP_temperature;BMP_pressure;BME280_temperature;BME280_humidity;BME280_pressure;Samples;Min_cycle;Max_cycle;Signal;HPM_P1;HPM_P2
2024/02/26 00:01:13;;;;;;;2.43;2.30;;;;;;;13.68;41.02;96863.94;6765083;29;20304;-85
2024/02/26 00:04:34;;;;;;;2.90;2.60;;;;;;;13.52;40.98;96873.16;6764951;29;20216;-85
2024/02/26 00:07:56;;;;;;;2.63;2.43;;;;;;;13.60;40.90;96862.59;6763499;29;20258;-84
2024/02/26 00:11:19;;;;;;;2.67;2.47;;;;;;;13.77;40.53;96857.72;6762932;29;20698;-85
2024/02/26 00:14:41;;;;;;;2.70;2.50;;;;;;;13.38;40.31;96794.38;6762800;29;20348;-87
2024/02/26 00:18:02;;;;;;;2.87;2.57;;;;;;;13.80;40.14;96859.06;6762557;29;20634;-86
2024/02/26 00:21:24;;;;;;;2.63;2.43;;;;;;;13.58;40.70;96864.72;6763489;29;20360;-84
2024/02/26 00:24:45;;;;;;;2.90;2.70;;;;;;;13.23;39.97;96752.97;6764168;29;20216;-85
2024/02/26 00:28:08;;;;;;;2.20;2.10;;;;;;;13.62;40.21;96865.03;6764173;29;20327;-85
2024/02/26 00:31:30;;;;;;;2.53;2.33;;;;;;;13.49;40.65;96879.09;6763509;29;20263;-84
2024/02/26 00:34:51;;;;;;;2.90;2.60;;;;;;;13.60;40.50;96876.13;6763467;29;20272;-85
2024/02/26 00:38:13;;;;;;;3.80;2.53;;;;;;;13.71;40.43;96861.50;6763932;29;20702;-86
2024/02/26 00:41:38;;;;;;;2.87;2.50;;;;;;;13.74;40.89;96841.19;6763812;29;20239;-85
2024/02/26 00:45:01;;;;;;;2.47;2.37;;;;;;;13.87;39.93;96856.88;6764067;29;20200;-85
2024/02/26 00:48:25;;;;;;;2.70;2.43;;;;;;;13.57;40.25;96840.66;6762715;29;20333;-84
2024/02/26 00:51:46;;;;;;;2.33;2.20;;;;;;;13.66;40.65;96855.25;6764000;29;20215;-84
2024/02/26 00:55:08;;;;;;;3.10;2.80;;;;;;;13.47;42.35;96865.84;6763734;29;20360;-85
2024/02/26 00:58:30;;;;;;;4.70;2.67;;;;;;;13.31;43.05;96861.50;6763354;29;20656;-85
2024/02/26 01:01:53;;;;;;;3.43;2.60;;;;;;;12.93;43.90;96844.91;6763163;29;20224;-85
2024/02/26 01:05:16;;;;;;;2.87;2.63;;;;;;;13.03;43.32;96848.47;6762916;29;20294;-85
2024/02/26 01:08:39;;;;;;;3.53;2.70;;;;;;;13.21;42.62;96847.16;6762910;29;20372;-86
2024/02/26 01:12:02;;;;;;;2.60;2.40;;;;;;;12.97;43.80;96844.13;6762491;29;20212;-85
2024/02/26 01:15:24;;;;;;;2.70;2.50;;;;;;;12.85;44.73;96857.03;6761639;29;20235;-85
2024/02/26 01:18:47;;;;;;;3.87;2.80;;;;;;;12.41;45.00;96790.97;6787555;29;20227;-85
2024/02/26 01:22:08;;;;;;;3.53;2.40;;;;;;;13.21;43.21;96850.66;6787216;29;20243;-85
2024/02/26 01:25:30;;;;;;;2.83;2.63;;;;;;;13.14;42.76;96835.75;6787996;29;20682;-85
2024/02/26 01:28:51;;;;;;;3.60;2.70;;;;;;;12.99;40.84;96827.63;6786858;29;20322;-85
2024/02/26 01:32:13;;;;;;;2.50;2.30;;;;;;;13.10;40.80;96846.31;6786570;29;20215;-84
2024/02/26 01:35:36;;;;;;;2.60;2.40;;;;;;;12.88;41.09;96755.63;6780074;29;20264;-84
2024/02/26 01:38:57;;;;;;;2.63;2.43;;;;;;;13.23;42.76;96845.78;6759063;29;20372;-85
2024/02/26 01:42:19;;;;;;;2.30;2.20;;;;;;;12.88;43.74;96809.72;6760628;29;20275;-84
2024/02/26 01:45:40;;;;;;;2.70;2.30;;;;;;;12.80;44.29;96829.97;6759970;29;20256;-84
2024/02/26 01:49:03;;;;;;;2.60;2.40;;;;;;;12.81;44.44;96842.41;6759755;29;20302;-85
2024/02/26 01:52:26;;;;;;;2.63;2.30;;;;;;;12.40;44.24;96819.03;6760849;29;20671;-84
2024/02/26 01:55:47;;;;;;;3.87;2.30;;;;;;;12.85;43.64;96830.00;6761179;29;20272;-84
2024/02/26 01:59:09;;;;;;;2.30;2.20;;;;;;;12.45;43.54;96826.38;6759745;29;20781;-84
2024/02/26 02:02:31;;;;;;;2.47;2.27;;;;;;;12.76;43.86;96865.94;6761199;29;20697;-85
2024/02/26 02:05:53;;;;;;;2.83;2.60;;;;;;;12.41;44.48;96873.91;6761321;29;20833;-84
2024/02/26 02:09:16;;;;;;;4.53;2.47;;;;;;;12.67;43.40;96881.84;6760605;29;20210;-85
2024/02/26 02:12:39;;;;;;;2.33;2.10;;;;;;;13.15;42.69;96878.78;6758697;29;20298;-84
2024/02/26 02:16:01;;;;;;;3.23;2.60;;;;;;;13.20;43.07;96878.78;6757596;29;20219;-84
2024/02/26 02:19:22;;;;;;;2.50;2.30;;;;;;;13.28;42.96;96882.88;6758809;29;20232;-85
2024/02/26 02:22:46;;;;;;;2.30;2.13;;;;;;;13.22;42.83;96873.91;6760125;29;20300;-84
2024/02/26 02:26:07;;;;;;;2.10;2.00;;;;;;;12.93;43.32;96848.41;6765258;29;20289;-85
2024/02/26 02:29:29;;;;;;;3.67;2.47;;;;;;;13.16;43.41;96898.53;6783451;29;20234;-84
2024/02/26 02:32:50;;;;;;;2.53;2.10;;;;;;;12.91;44.37;96896.53;6783370;29;20223;-85
2024/02/26 02:36:12;;;;;;;2.50;2.30;;;;;;;12.36;44.74;96839.56;6782803;29;20349;-85
2024/02/26 02:39:35;;;;;;;3.03;2.73;;;;;;;12.09;46.91;96903.72;6755559;29;20784;-87
2024/02/26 02:42:56;;;;;;;3.00;2.80;;;;;;;11.36;48.70;96898.25;6756813;29;20294;-87
2024/02/26 02:46:18;;;;;;;2.60;2.40;;;;;;;12.12;46.25;96903.22;6757666;29;20368;-86
2024/02/26 02:49:39;;;;;;;2.63;2.40;;;;;;;12.06;46.51;96908.81;6759118;29;20196;-87
2024/02/26 02:53:01;;;;;;;2.53;2.33;;;;;;;11.88;46.39;96895.75;6759828;29;20208;-87
2024/02/26 02:56:24;;;;;;;2.50;2.30;;;;;;;11.85;46.17;96880.88;6757277;29;20235;-87
2024/02/26 02:59:46;;;;;;;4.30;2.40;;;;;;;12.47;44.61;96878.25;6754656;29;20204;-88
2024/02/26 03:03:08;;;;;;;3.83;3.07;;;;;;;12.68;44.92;96902.41;6756238;29;20203;-84
2024/02/26 03:06:29;;;;;;;3.70;3.40;;;;;;;12.74;45.81;96887.03;6756219;29;20725;-85
2024/02/26 03:09:50;;;;;;;4.40;2.47;;;;;;;12.27;47.60;96914.09;6745877;29;20356;-87
2024/02/26 03:13:13;;;;;;;5.70;4.97;;;;;;;11.98;47.95;96895.81;6745431;29;20660;-87
2024/02/26 03:16:35;;;;;;;3.17;2.87;;;;;;;12.25;48.02;96912.72;6752776;29;20227;-87
2024/02/26 03:19:57;;;;;;;3.27;2.97;;;;;;;12.39;47.75;96924.72;6762023;29;20207;-87
2024/02/26 03:23:19;;;;;;;3.37;3.07;;;;;;;12.41;47.19;96926.06;6762787;29;20287;-86
2024/02/26 03:26:40;;;;;;;2.40;2.30;;;;;;;12.38;44.89;96904.13;6762604;29;20271;-86
2024/02/26 03:30:04;;;;;;;2.53;2.40;;;;;;;11.92;45.91;96896.84;6762010;29;20297;-87
2024/02/26 03:33:25;;;;;;;2.20;2.10;;;;;;;12.43;45.42;96887.97;6762244;29;20594;-86
2024/02/26 03:36:47;;;;;;;2.80;2.60;;;;;;;12.90;44.18;96894.09;6759643;29;20318;-87
2024/02/26 03:40:09;;;;;;;3.10;2.73;;;;;;;12.65;45.50;96912.94;6755860;29;20239;-88
2024/02/26 03:43:31;;;;;;;3.13;2.67;;;;;;;12.65;45.16;96911.06;6758197;29;20678;-87
2024/02/26 03:46:55;;;;;;;2.90;2.70;;;;;;;11.71;44.10;96905.88;6761134;29;20603;-87
2024/02/26 03:50:17;;;;;;;3.47;3.13;;;;;;;12.05;46.00;96899.09;6761263;29;20208;-86
2024/02/26 03:53:38;;;;;;;3.17;2.87;;;;;;;12.50;45.73;96896.63;6756198;29;20202;-87
2024/02/26 03:57:00;;;;;;;2.60;2.40;;;;;;;12.05;47.08;96881.00;6760893;29;20322;-87
2024/02/26 04:00:22;;;;;;;2.80;2.60;;;;;;;12.11;45.82;96871.03;6759691;29;20204;-87
2024/02/26 04:03:45;;;;;;;3.00;2.80;;;;;;;12.34;47.01;96873.34;6760667;29;20240;-87
2024/02/26 04:07:07;;;;;;;3.60;2.50;;;;;;;11.85;47.48;96861.97;6735401;29;20235;-87
2024/02/26 04:10:28;;;;;;;2.83;2.53;;;;;;;12.36;47.46;96874.69;6760137;29;20693;-87
2024/02/26 04:13:52;;;;;;;3.57;3.13;;;;;;;12.52;45.10;96867.47;6763103;29;20271;-87
2024/02/26 04:17:13;;;;;;;3.87;2.80;;;;;;;12.10;44.98;96866.72;6765531;29;20330;-87
2024/02/26 04:20:36;;;;;;;3.30;3.00;;;;;;;12.03;44.76;96871.56;6767628;29;20703;-87
2024/02/26 04:24:01;;;;;;;2.57;2.40;;;;;;;12.41;44.66;96855.81;6772149;29;20287;-86
2024/02/26 04:27:22;;;;;;;2.60;2.40;;;;;;;12.84;43.86;96847.31;6769544;29;20287;-87
2024/02/26 04:30:44;;;;;;;2.57;2.37;;;;;;;12.19;45.87;96859.75;6766543;29;20299;-86
2024/02/26 04:34:05;;;;;;;3.20;3.00;;;;;;;11.94;46.33;96863.13;6765514;29;20723;-86
2024/02/26 04:37:30;;;;;;;2.90;2.70;;;;;;;12.19;45.78;96862.44;6766575;29;20377;-86
2024/02/26 04:40:52;;;;;;;2.70;2.50;;;;;;;12.64;43.88;96873.47;6763769;29;20209;-86
2024/02/26 04:44:13;;;;;;;3.40;3.10;;;;;;;12.69;43.55;96871.59;6762471;29;20297;-87
2024/02/26 04:47:35;;;;;;;3.33;3.03;;;;;;;12.67;43.77;96875.63;6760199;29;20303;-86
2024/02/26 04:50:56;;;;;;;2.87;2.67;;;;;;;12.86;43.49;96871.38;6759105;29;20251;-86
2024/02/26 04:54:19;;;;;;;2.60;2.40;;;;;;;12.63;43.68;96853.72;6759799;29;20695;-87
2024/02/26 04:57:41;;;;;;;3.43;2.67;;;;;;;12.43;44.27;96866.34;6758905;29;20235;-87
2024/02/26 05:01:03;;;;;;;3.07;2.87;;;;;;;12.63;43.30;96839.41;6758448;29;20770;-87
2024/02/26 05:04:24;;;;;;;3.00;2.70;;;;;;;12.48;42.84;96840.16;6759428;29;20235;-86
2024/02/26 05:07:46;;;;;;;2.60;2.40;;;;;;;12.08;43.87;96858.88;6764767;29;20383;-86
2024/02/26 05:11:09;;;;;;;2.73;2.50;;;;;;;12.05;43.54;96797.25;6766345;29;20276;-86
2024/02/26 05:14:30;;;;;;;2.77;2.57;;;;;;;12.83;43.13;96837.56;6765655;29;20215;-86
2024/02/26 05:17:52;;;;;;;2.77;2.57;;;;;;;12.57;42.74;96843.16;6765576;29;20331;-86
2024/02/26 05:21:14;;;;;;;3.70;2.77;;;;;;;12.53;43.27;96847.47;6768438;29;20232;-82
2024/02/26 05:24:38;;;;;;;4.17;2.87;;;;;;;12.46;43.59;96852.31;6768012;29;20216;-86
2024/02/26 05:28:01;;;;;;;2.50;2.30;;;;;;;12.56;42.15;96798.31;6755315;29;20255;-85
2024/02/26 05:31:23;;;;;;;4.17;3.00;;;;;;;12.34;42.90;96828.19;6767179;29;20263;-85
2024/02/26 05:34:46;;;;;;;3.83;2.90;;;;;;;12.68;43.05;96867.25;6767442;29;20212;-85
2024/02/26 05:38:08;;;;;;;2.53;2.33;;;;;;;13.16;41.98;96871.50;6784556;29;20268;-86
2024/02/26 05:41:30;;;;;;;3.10;2.40;;;;;;;13.32;41.52;96863.13;6793549;29;20212;-83
2024/02/26 05:44:52;;;;;;;3.27;2.43;;;;;;;13.00;41.68;96819.25;6763015;29;20217;-85
2024/02/26 05:48:14;;;;;;;3.20;2.53;;;;;;;13.31;42.48;96874.19;6763112;29;20745;-86
2024/02/26 05:51:35;;;;;;;2.83;2.53;;;;;;;13.26;43.07;96890.44;6762515;29;20237;-85
2024/02/26 05:54:57;;;;;;;5.40;3.10;;;;;;;12.85;44.54;96892.19;6757385;29;20256;-86
2024/02/26 05:58:19;;;;;;;3.73;2.97;;;;;;;12.72;45.07;96918.91;6761069;29;20311;-85
2024/02/26 06:01:41;;;;;;;3.30;3.00;;;;;;;11.98;46.73;96918.22;6762756;29;20252;-85
2024/02/26 06:05:04;;;;;;;5.47;3.90;;;;;;;12.17;46.72;96930.22;6762624;29;20204;-85
2024/02/26 06:08:25;;;;;;;3.73;3.33;;;;;;;12.16;47.13;96925.91;6760347;29;20222;-85
2024/02/26 06:11:47;;;;;;;3.40;3.10;;;;;;;11.74;48.06;96922.34;6758415;29;20203;-83
2024/02/26 06:15:09;;;;;;;4.00;2.83;;;;;;;12.36;47.16;96893.63;6761274;29;20682;-83
2024/02/26 06:18:32;;;;;;;5.17;3.70;;;;;;;12.55;48.54;96913.72;6760849;29;20246;-83
2024/02/26 06:21:53;;;;;;;4.00;3.43;;;;;;;12.90;47.36;96921.13;6762070;29;20235;-84
2024/02/26 06:25:15;;;;;;;4.70;3.70;;;;;;;12.40;48.40;96924.41;6760310;29;20739;-84
2024/02/26 06:28:40;;;;;;;3.17;2.97;;;;;;;12.12;48.43;96953.69;6760628;29;20230;-85
2024/02/26 06:32:01;;;;;;;3.60;3.30;;;;;;;12.02;49.91;96956.31;6763876;29;20218;-85
2024/02/26 06:35:24;;;;;;;4.57;3.23;;;;;;;12.57;48.71;96956.69;6765036;29;20245;-85
2024/02/26 06:38:46;;;;;;;4.50;3.70;;;;;;;12.82;47.60;96935.19;6766045;29;20326;-85
2024/02/26 06:42:08;;;;;;;3.57;3.10;;;;;;;11.81;49.11;96932.94;6766795;29;20676;-84
2024/02/26 06:45:29;;;;;;;3.37;3.07;;;;;;;12.57;48.06;96943.97;6768384;29;20343;-84
2024/02/26 06:48:51;;;;;;;3.47;3.10;;;;;;;12.79;46.68;96960.03;6766928;29;20251;-84
2024/02/26 06:52:14;;;;;;;4.77;2.90;;;;;;;12.09;47.50;96895.59;6766897;29;20211;-85
2024/02/26 06:55:37;;;;;;;5.17;3.43;;;;;;;12.35;48.99;96961.44;6766051;29;20215;-84
2024/02/26 06:58:58;;;;;;;4.77;3.90;;;;;;;12.50;48.84;96988.53;6764781;29;20315;-85
2024/02/26 07:02:20;;;;;;;7.33;5.60;;;;;;;12.66;48.31;96980.28;6764465;29;20287;-84
2024/02/26 07:05:56;;;;;;;6.53;4.40;;;;;;;12.21;48.52;96884.63;6761315;29;20296;-85
2024/02/26 07:09:19;;;;;;;4.97;4.10;;;;;;;12.46;48.84;96941.50;6744291;29;20197;-86
2024/02/26 07:12:40;;;;;;;5.37;3.97;;;;;;;12.58;48.01;96948.31;6761714;29;20211;-85
2024/02/26 07:16:02;;;;;;;4.70;3.60;;;;;;;12.48;49.07;96972.59;6763408;29;20283;-85
2024/02/26 07:19:24;;;;;;;4.83;4.33;;;;;;;12.52;49.13;96997.22;6771016;29;20617;-88
2024/02/26 07:22:45;;;;;;;6.33;3.37;;;;;;;12.49;49.74;97000.41;6767696;29;20212;-83
2024/02/26 07:26:08;;;;;;;4.87;4.00;;;;;;;12.62;49.71;96994.59;6764308;29;20243;-83
2024/02/26 07:29:30;;;;;;;3.30;2.70;;;;;;;11.57;50.43;96942.44;6762843;29;20207;-83
2024/02/26 07:32:52;;;;;;;3.03;2.83;;;;;;;11.43;50.92;96993.28;6764210;29;20314;-82
2024/02/26 07:36:16;;;;;;;3.97;3.13;;;;;;;12.59;49.19;97022.13;6763446;29;20700;-83
2024/02/26 07:43:28;;;;;;;3.20;2.90;;;;;;;12.44;49.75;96971.47;6763089;29;20304;-81
2024/02/26 07:46:49;;;;;;;3.33;3.03;;;;;;;12.32;50.11;96953.81;6764125;29;20315;-83
2024/02/26 07:50:14;;;;;;;4.37;3.50;;;;;;;12.34;50.05;96960.59;6763705;29;20212;-83
2024/02/26 07:53:35;;;;;;;3.27;3.07;;;;;;;12.84;49.22;97027.66;6763279;29;20692;-81
2024/02/26 07:56:57;;;;;;;6.40;3.20;;;;;;;12.87;49.22;97041.47;6761452;29;20235;-83
2024/02/26 08:00:21;;;;;;;3.70;3.40;;;;;;;11.94;51.41;97032.41;6761885;29;20299;-83
2024/02/26 08:03:42;;;;;;;3.53;3.23;;;;;;;12.61;51.05;97028.06;6766230;29;20291;-83
2024/02/26 08:07:04;;;;;;;15.20;10.47;;;;;;;12.80;50.53;97034.69;6763740;29;20322;-83
2024/02/26 08:10:25;;;;;;;5.53;4.17;;;;;;;12.91;49.66;97039.06;6761092;29;20302;-84
2024/02/26 08:13:47;;;;;;;5.63;4.47;;;;;;;12.71;50.79;97041.66;6762252;29;20268;-84
2024/02/26 08:17:10;;;;;;;4.63;4.20;;;;;;;13.10;50.52;97034.88;6761384;29;20318;-83
2024/02/26 08:20:31;;;;;;;5.27;4.20;;;;;;;13.21;50.58;97042.78;6762056;29;20263;-83
2024/02/26 08:23:53;;;;;;;6.93;5.90;;;;;;;13.13;50.16;97018.09;6760030;29;20215;-84
2024/02/26 08:27:15;;;;;;;6.90;5.27;;;;;;;13.00;51.57;97034.81;6760939;29;20433;-82
2024/02/26 08:30:38;;;;;;;7.93;4.77;;;;;;;12.06;52.92;97033.91;6761162;29;20356;-84
2024/02/26 08:34:02;;;;;;;5.20;4.10;;;;;;;12.63;51.12;96936.72;6759984;29;20207;-84
2024/02/26 08:37:35;;;;;;;5.73;4.23;;;;;;;13.04;50.16;96958.28;6759104;29;20238;-83
2024/02/26 08:40:59;;;;;;;4.30;3.90;;;;;;;13.35;49.27;96961.91;6759821;29;20222;-83
2024/02/26 08:44:21;;;;;;;4.63;3.70;;;;;;;13.68;49.38;97023.72;6759930;29;20207;-84
2024/02/26 08:47:59;;;;;;;4.47;3.80;;;;;;;12.87;49.93;96908.16;6758531;29;20338;-84
2024/02/26 08:51:22;;;;;;;5.20;3.53;;;;;;;13.57;50.85;97033.69;6759879;29;20202;-83
2024/02/26 08:54:43;;;;;;;4.00;3.17;;;;;;;13.64;50.95;97038.88;6754069;29;20700;-83
2024/02/26 08:58:05;;;;;;;3.43;2.90;;;;;;;13.04;50.44;97034.03;6753845;29;20326;-84
2024/02/26 09:01:27;;;;;;;5.27;3.70;;;;;;;12.94;51.50;97016.91;6758369;29;20296;-83
2024/02/26 09:04:48;;;;;;;4.20;3.30;;;;;;;13.11;50.90;97004.84;6759946;29;20676;-83
2024/02/26 09:08:11;;;;;;;3.17;2.87;;;;;;;13.04;49.95;97027.81;6759833;29;20710;-83
2024/02/26 09:11:33;;;;;;;2.67;2.47;;;;;;;13.79;46.08;97003.66;6754682;29;20664;-83
2024/02/26 09:14:56;;;;;;;3.10;2.83;;;;;;;14.16;46.45;97023.22;6760954;29;20343;-81
2024/02/26 09:18:17;;;;;;;4.30;2.73;;;;;;;14.19;44.43;97017.28;6746555;29;20258;-84
2024/02/26 09:21:43;;;;;;;3.23;2.40;;;;;;;14.70;44.58;97030.53;6734743;29;20307;-81
2024/02/26 09:25:07;;;;;;;2.60;2.40;;;;;;;14.10;44.43;97025.13;6734560;29;20198;-82
2024/02/26 09:28:31;;;;;;;4.00;2.77;;;;;;;14.44;42.57;97033.53;6734820;29;20744;-81
2024/02/26 09:31:53;;;;;;;2.97;2.67;;;;;;;14.20;43.07;97013.50;6751584;29;20230;-82
2024/02/26 09:35:14;;;;;;;2.90;2.50;;;;;;;13.97;42.30;97022.13;6759304;29;20303;-81
2024/02/26 09:38:37;;;;;;;2.70;2.50;;;;;;;13.65;42.86;97033.19;6759234;29;20348;-81
2024/02/26 09:42:06;;;;;;;3.20;2.90;;;;;;;13.91;42.49;97028.59;6754666;29;20236;-81
2024/02/26 09:45:29;;;;;;;6.77;4.50;;;;;;;14.11;42.79;97020.53;6759160;29;20197;-81
2024/02/26 09:48:50;;;;;;;3.70;3.27;;;;;;;13.49;42.30;96954.88;6757740;29;20290;-81
2024/02/26 09:52:12;;;;;;;3.23;2.93;;;;;;;14.70;42.01;97046.00;6759513;29;20300;-81
2024/02/26 09:55:34;;;;;;;3.43;3.10;;;;;;;14.79;43.04;97061.44;6758939;29;20340;-82
2024/02/26 09:58:57;;;;;;;3.70;3.00;;;;;;;14.46;43.28;97066.63;6758100;29;20664;-81
2024/02/26 10:02:20;;;;;;;4.40;3.70;;;;;;;14.68;42.86;97061.75;6759067;29;20230;-81
2024/02/26 10:05:42;;;;;;;6.07;3.77;;;;;;;14.10;45.70;97057.63;6758938;29;20215;-81
2024/02/26 10:09:06;;;;;;;4.23;3.80;;;;;;;13.96;45.38;97061.13;6758440;29;20297;-82
2024/02/26 10:12:31;;;;;;;4.23;3.00;;;;;;;14.36;45.71;97059.31;6758765;29;20218;-83
2024/02/26 10:15:53;;;;;;;7.10;3.67;;;;;;;14.87;45.65;97044.59;6758729;29;20208;-84
2024/02/26 10:19:26;;;;;;;4.97;3.17;;;;;;;14.59;44.71;97044.38;6748613;29;20327;-84
2024/02/26 10:22:47;;;;;;;5.30;3.27;;;;;;;15.09;45.55;97055.94;6758199;29;20207;-81
2024/02/26 10:26:11;;;;;;;3.60;3.00;;;;;;;15.90;43.22;97057.25;6758689;29;20274;-82
2024/02/26 10:29:33;;;;;;;4.10;3.00;;;;;;;16.30;41.60;97061.63;6758554;29;20351;-82
2024/02/26 10:32:57;;;;;;;3.40;3.10;;;;;;;16.14;42.40;97060.91;6759172;29;20278;-81
2024/02/26 10:36:18;;;;;;;5.00;3.50;;;;;;;16.37;42.41;97056.66;6759164;29;20289;-81
2024/02/26 10:39:42;;;;;;;3.43;3.13;;;;;;;16.05;40.59;97056.34;6760881;29;20318;-82
2024/02/26 10:43:03;;;;;;;3.30;3.00;;;;;;;15.34;43.14;97053.19;6762408;29;20249;-82
2024/02/26 10:46:26;;;;;;;3.30;2.87;;;;;;;16.01;41.82;97045.25;6757170;29;20717;-82
2024/02/26 10:49:49;;;;;;;3.03;2.73;;;;;;;16.38;40.91;97042.81;6755336;29;20421;-80
2024/02/26 10:53:16;;;;;;;3.17;2.70;;;;;;;16.97;40.03;97047.97;6734376;29;20305;-81
2024/02/26 10:56:39;;;;;;;3.20;2.60;;;;;;;17.61;38.96;97041.00;6731811;29;20869;-82
2024/02/26 11:00:01;;;;;;;5.23;3.23;;;;;;;17.63;39.35;97046.16;6734808;29;20310;-80
2024/02/26 11:03:23;;;;;;;3.40;3.10;;;;;;;17.23;39.52;97050.13;6763710;29;20365;-82
2024/02/26 11:06:47;;;;;;;2.50;2.30;;;;;;;17.34;37.49;97050.84;6778128;29;20318;-81
2024/02/26 11:10:11;;;;;;;3.77;2.50;;;;;;;17.02;38.82;97053.38;6755418;29;20210;-80
2024/02/26 11:13:33;;;;;;;4.93;2.90;;;;;;;17.53;37.43;97017.13;6754497;29;20692;-79
2024/02/26 11:16:55;;;;;;;2.53;2.33;;;;;;;17.56;37.00;97032.06;6732062;29;20388;-79
2024/02/26 11:20:17;;;;;;;2.70;2.50;;;;;;;17.68;37.73;97067.91;6735375;29;20745;-80
2024/02/26 11:23:40;;;;;;;2.60;2.40;;;;;;;17.93;36.29;97060.19;6754992;29;20689;-79
2024/02/26 11:27:03;;;;;;;2.30;2.10;;;;;;;17.30;36.41;97057.97;6747495;29;20239;-79
2024/02/26 11:30:26;;;;;;;2.40;2.20;;;;;;;16.03;39.16;97043.03;6750716;29;20294;-79
2024/02/26 11:33:48;;;;;;;2.30;2.10;;;;;;;16.81;37.94;97032.91;6745673;29;20685;-79
2024/02/26 11:37:11;;;;;;;3.50;2.10;;;;;;;16.84;37.59;97056.81;6752443;29;20322;-80
2024/02/26 11:40:34;;;;;;;4.10;2.30;;;;;;;16.14;38.14;97050.03;6754268;29;20268;-79
2024/02/26 11:44:00;;;;;;;1.90;1.80;;;;;;;16.64;37.05;97054.31;6754777;29;20253;-81
2024/02/26 11:47:23;;;;;;;2.67;2.13;;;;;;;17.04;37.82;97062.88;6755743;29;20304;-80
2024/02/26 11:50:47;;;;;;;1.90;1.80;;;;;;;17.17;35.95;97029.50;6755578;29;20315;-80
2024/02/26 11:54:09;;;;;;;2.17;1.97;;;;;;;17.18;36.67;97068.47;6754214;29;20243;-80
2024/02/26 11:57:39;;;;;;;2.20;2.00;;;;;;;17.01;35.54;97068.09;6756024;29;20734;-80
2024/02/26 12:01:01;;;;;;;2.30;2.10;;;;;;;17.69;34.81;97059.41;6756582;29;20307;-80
2024/02/26 12:04:26;;;;;;;2.50;2.30;;;;;;;17.59;35.22;97035.03;6749981;29;20700;-80
2024/02/26 12:07:49;;;;;;;1.83;1.73;;;;;;;17.81;35.30;97048.91;6760316;29;20286;-80
2024/02/26 12:11:15;;;;;;;2.10;2.00;;;;;;;18.39;35.22;97049.47;6760947;29;20311;-79
2024/02/26 12:14:40;;;;;;;2.40;2.20;;;;;;;18.20;34.01;97059.53;6760137;29;20291;-80
2024/02/26 12:18:03;;;;;;;2.00;1.90;;;;;;;18.45;34.14;97008.13;6759543;29;20727;-80
2024/02/26 12:21:25;;;;;;;2.30;2.10;;;;;;;19.40;32.46;97054.78;6759838;29;20228;-80
2024/02/26 12:24:46;;;;;;;2.50;2.27;;;;;;;19.41;31.77;97032.59;6757943;29;20295;-78
2024/02/26 12:28:08;;;;;;;2.10;2.00;;;;;;;19.29;32.21;97056.88;6757004;29;20254;-78
2024/02/26 12:31:31;;;;;;;1.80;1.70;;;;;;;20.24;31.42;97065.84;6757719;29;20303;-78
2024/02/26 12:34:53;;;;;;;1.60;1.50;;;;;;;19.82;32.12;97074.38;6758625;29;20212;-80
2024/02/26 12:38:15;;;;;;;1.80;1.70;;;;;;;20.07;30.64;97064.84;6758337;29;20261;-78
2024/02/26 12:41:37;;;;;;;2.07;1.90;;;;;;;19.28;31.42;97079.84;6757094;29;20328;-78
2024/02/26 12:44:58;;;;;;;1.63;1.53;;;;;;;17.73;33.55;97070.53;6755286;29;20219;-77
2024/02/26 12:48:21;;;;;;;1.87;1.77;;;;;;;18.67;33.32;97075.72;6745946;29;20764;-78
2024/02/26 12:51:43;;;;;;;2.10;2.00;;;;;;;18.26;33.63;97074.72;6757240;29;20216;-78
2024/02/26 12:55:05;;;;;;;2.10;2.00;;;;;;;17.40;34.47;97082.41;6757189;29;20359;-78
2024/02/26 12:58:27;;;;;;;3.10;2.17;;;;;;;17.56;34.91;97081.94;6756643;29;20285;-79
2024/02/26 13:01:49;;;;;;;6.83;2.20;;;;;;;17.98;34.52;97073.75;6760451;29;20640;-79
2024/02/26 13:05:14;;;;;;;2.40;2.20;;;;;;;18.36;35.15;97082.78;6759702;29;20636;-79
2024/02/26 13:08:35;;;;;;;2.20;2.00;;;;;;;17.95;33.91;97084.44;6758242;29;20719;-78
2024/02/26 13:11:57;;;;;;;3.20;1.90;;;;;;;17.95;33.90;97082.53;6758011;29;20298;-78
2024/02/26 13:15:20;;;;;;;2.20;2.00;;;;;;;17.54;35.26;97070.53;6752572;29;20299;-78
2024/02/26 13:18:42;;;;;;;2.03;1.83;;;;;;;17.71;33.88;97046.31;6756882;29;20355;-78
2024/02/26 13:22:07;;;;;;;2.43;2.23;;;;;;;17.40;35.27;97099.56;6757480;29;20314;-78
2024/02/26 13:25:28;;;;;;;3.43;2.67;;;;;;;17.61;35.40;97068.25;6757628;29;20208;-78
2024/02/26 13:29:00;;;;;;;4.40;2.80;;;;;;;17.65;35.72;97082.94;6758629;29;20389;-79
2024/02/26 13:32:22;;;;;;;3.00;2.57;;;;;;;18.04;34.71;97096.31;6760648;29;20266;-78
2024/02/26 13:35:43;;;;;;;3.20;2.90;;;;;;;17.86;35.47;97106.09;6760587;29;20322;-79
2024/02/26 13:39:06;;;;;;;4.27;3.23;;;;;;;18.43;33.80;97097.69;6759406;29;20255;-79
2024/02/26 13:42:28;;;;;;;3.53;2.53;;;;;;;18.24;35.26;97096.03;6760544;29;20220;-79
2024/02/26 13:45:50;;;;;;;3.63;2.80;;;;;;;18.26;34.57;97091.91;6758096;29;20220;-79
2024/02/26 13:49:12;;;;;;;3.97;2.93;;;;;;;18.51;34.78;97074.38;6755222;29;20391;-80
2024/02/26 13:52:34;;;;;;;5.27;2.67;;;;;;;18.50;34.76;97102.75;6760083;29;20216;-82
2024/02/26 13:55:58;;;;;;;3.37;2.57;;;;;;;18.10;35.34;97106.06;6761354;29;20623;-79
2024/02/26 13:59:20;;;;;;;4.40;2.40;;;;;;;18.85;35.68;97105.72;6755739;29;20215;-79
2024/02/26 14:02:41;;;;;;;3.23;2.00;;;;;;;18.19;35.17;97102.38;6758853;29;20298;-80
2024/02/26 14:06:03;;;;;;;1.93;1.83;;;;;;;18.49;34.58;97107.41;6761138;29;20307;-79
2024/02/26 14:09:24;;;;;;;6.53;2.20;;;;;;;18.69;35.14;97103.56;6760546;29;20303;-79
2024/02/26 14:12:47;;;;;;;2.43;2.23;;;;;;;19.27;34.41;97107.50;6760123;29;20300;-79
2024/02/26 14:16:10;;;;;;;2.43;2.23;;;;;;;18.63;34.79;97099.28;6759715;29;20259;-79
2024/02/26 14:19:32;;;;;;;5.90;2.20;;;;;;;17.82;36.48;97104.25;6758005;29;20742;-79
2024/02/26 14:22:55;;;;;;;2.50;2.30;;;;;;;18.15;36.34;97109.50;6758943;29;20313;-79
2024/02/26 14:26:20;;;;;;;2.70;2.33;;;;;;;18.96;35.50;97109.09;6758730;29;20239;-80
2024/02/26 14:29:43;;;;;;;2.50;2.30;;;;;;;18.75;35.32;97103.16;6757213;29;20239;-80
2024/02/26 14:33:04;;;;;;;2.20;2.00;;;;;;;18.43;35.19;97121.41;6759159;29;20230;-79
2024/02/26 14:36:26;;;;;;;1.97;1.87;;;;;;;18.28;34.68;97124.34;6759639;29;20316;-79
2024/02/26 14:39:49;;;;;;;2.23;2.00;;;;;;;18.04;36.66;97116.22;6757165;29;20236;-79
2024/02/26 14:43:11;;;;;;;2.30;2.10;;;;;;;18.43;35.34;97094.13;6757267;29;20222;-79
2024/02/26 14:46:34;;;;;;;2.07;1.80;;;;;;;18.44;35.53;97102.03;6757552;29;20240;-81
2024/02/26 14:49:56;;;;;;;2.40;2.20;;;;;;;17.70;36.13;97114.75;6758757;29;20223;-80
2024/02/26 14:53:18;;;;;;;2.20;2.00;;;;;;;17.99;36.23;97126.38;6758924;29;20364;-79
2024/02/26 14:56:39;;;;;;;2.10;2.00;;;;;;;17.80;36.06;97131.00;6758161;29;20248;-81
2024/02/26 15:00:02;;;;;;;2.50;2.30;;;;;;;18.09;36.43;97127.06;6758232;29;20232;-80
2024/02/26 15:03:25;;;;;;;2.43;2.23;;;;;;;17.93;36.24;97117.44;6759255;29;20220;-81
2024/02/26 15:06:46;;;;;;;2.70;2.50;;;;;;;18.26;35.85;97108.28;6759408;29;20259;-81
2024/02/26 15:10:09;;;;;;;2.30;2.10;;;;;;;18.61;35.30;97115.97;6757374;29;20223;-81
2024/02/26 15:13:30;;;;;;;2.47;2.27;;;;;;;17.90;36.39;97119.94;6758627;29;20344;-81
2024/02/26 15:16:52;;;;;;;3.17;2.60;;;;;;;18.58;35.65;97118.47;6758211;29;20284;-81
2024/02/26 15:20:15;;;;;;;3.53;2.83;;;;;;;18.68;35.37;97115.56;6757673;29;20375;-78
2024/02/26 15:23:37;;;;;;;2.73;2.23;;;;;;;18.81;35.13;97133.94;6756062;29;20347;-79
2024/02/26 15:26:58;;;;;;;3.33;2.90;;;;;;;18.74;35.20;97126.13;6758731;29;20279;-80
2024/02/26 15:30:20;;;;;;;2.60;2.40;;;;;;;18.57;35.67;97141.41;6757648;29;20664;-79
2024/02/26 15:33:41;;;;;;;3.40;3.03;;;;;;;18.59;35.91;97126.38;6758541;29;20215;-80
2024/02/26 15:37:05;;;;;;;3.40;2.57;;;;;;;18.91;35.16;97125.56;6758542;29;20337;-80
2024/02/26 15:40:26;;;;;;;5.13;2.60;;;;;;;18.48;35.90;97137.72;6749194;29;20722;-80
2024/02/26 15:43:48;;;;;;;2.40;2.20;;;;;;;18.32;36.42;97147.22;6741570;29;20230;-80
2024/02/26 15:47:09;;;;;;;2.73;2.30;;;;;;;18.83;35.87;97153.56;6762223;29;20314;-80
2024/02/26 15:50:31;;;;;;;2.93;2.67;;;;;;;18.61;36.35;97145.16;6762065;29;20205;-80
2024/02/26 15:53:54;;;;;;;2.67;2.47;;;;;;;18.55;36.19;97149.91;6763467;29;20231;-81
2024/02/26 15:57:17;;;;;;;2.50;2.30;;;;;;;18.44;36.42;97120.31;6760096;29;20236;-80